sensor_id;sensor_type;location;lat;lon;timestamp;P1;durP1;ratioP1;P2;durP2;ratioP2
17441;SDS011;8838;50.144;8.176;2024-03-25T00:00:08;6.93;;;2.07;;
17441;SDS011;8838;50.144;8.176;2024-03-25T00:02:37;7.63;;;2.30;;
17441;SDS011;8838;50.144;8.176;2024-03-25T00:05:04;6.10;;;1.90;;
17441;SDS011;8838;50.144;8.176;2024-03-25T00:07:32;8.93;;;2.40;;
17441;SDS011;8838;50.144;8.176;2024-03-25T00:09:59;11.10;;;2.10;;
17441;SDS011;8838;50.144;8.176;2024-03-25T00:12:25;9.50;;;2.07;;
17441;SDS011;8838;50.144;8.176;2024-03-25T00:14:51;8.60;;;1.90;;
17441;SDS011;8838;50.144;8.176;2024-03-25T00:17:17;7.43;;;2.40;;
17441;SDS011;8838;50.144;8.176;2024-03-25T00:19:46;9.37;;;2.50;;
17441;SDS011;8838;50.144;8.176;2024-03-25T00:22:15;7.23;;;1.90;;
17441;SDS011;8838;50.144;8.176;2024-03-25T00:24:42;9.60;;;2.10;;
17441;SDS011;8838;50.144;8.176;2024-03-25T00:27:08;10.60;;;2.00;;
17441;SDS011;8838;50.144;8.176;2024-03-25T00:29:35;9.03;;;2.20;;
17441;SDS011;8838;50.144;8.176;2024-03-25T00:32:01;8.40;;;2.40;;
17441;SDS011;8838;50.144;8.176;2024-03-25T00:34:28;9.73;;;1.90;;
17441;SDS011;8838;50.144;8.176;2024-03-25T00:36:55;9.03;;;1.97;;
17441;SDS011;8838;50.144;8.176;2024-03-25T00:39:22;10.80;;;2.53;;
17441;SDS011;8838;50.144;8.176;2024-03-25T00:41:48;9.90;;;2.20;;
17441;SDS011;8838;50.144;8.176;2024-03-25T00:44:14;10.87;;;1.97;;
17441;SDS011;8838;50.144;8.176;2024-03-25T00:46:40;10.60;;;2.17;;
17441;SDS011;8838;50.144;8.176;2024-03-25T00:49:07;6.00;;;1.97;;
17441;SDS011;8838;50.144;8.176;2024-03-25T00:51:33;10.67;;;2.13;;
17441;SDS011;8838;50.144;8.176;2024-03-25T00:54:02;13.23;;;2.50;;
17441;SDS011;8838;50.144;8.176;2024-03-25T00:56:28;12.47;;;2.67;;
17441;SDS011;8838;50.144;8.176;2024-03-25T00:58:55;10.30;;;2.33;;
17441;SDS011;8838;50.144;8.176;2024-03-25T01:01:22;12.37;;;2.43;;
17441;SDS011;8838;50.144;8.176;2024-03-25T01:03:49;9.80;;;2.20;;
17441;SDS011;8838;50.144;8.176;2024-03-25T01:06:15;10.53;;;1.97;;
17441;SDS011;8838;50.144;8.176;2024-03-25T01:08:42;9.57;;;2.53;;
17441;SDS011;8838;50.144;8.176;2024-03-25T01:11:09;8.97;;;2.27;;
17441;SDS011;8838;50.144;8.176;2024-03-25T01:13:36;11.90;;;2.30;;
17441;SDS011;8838;50.144;8.176;2024-03-25T01:16:01;10.20;;;2.27;;
17441;SDS011;8838;50.144;8.176;2024-03-25T01:18:28;15.60;;;2.60;;
17441;SDS011;8838;50.144;8.176;2024-03-25T01:20:54;10.07;;;2.60;;
17441;SDS011;8838;50.144;8.176;2024-03-25T01:23:21;9.20;;;1.80;;
17441;SDS011;8838;50.144;8.176;2024-03-25T01:25:47;12.23;;;2.67;;
17441;SDS011;8838;50.144;8.176;2024-03-25T01:28:15;9.63;;;2.50;;
17441;SDS011;8838;50.144;8.176;2024-03-25T01:30:41;9.67;;;2.10;;
17441;SDS011;8838;50.144;8.176;2024-03-25T01:33:08;9.43;;;2.40;;
17441;SDS011;8838;50.144;8.176;2024-03-25T01:35:34;9.37;;;2.57;;
17441;SDS011;8838;50.144;8.176;2024-03-25T01:38:01;13.30;;;2.77;;
17441;SDS011;8838;50.144;8.176;2024-03-25T01:40:28;9.10;;;2.37;;
17441;SDS011;8838;50.144;8.176;2024-03-25T01:42:55;11.33;;;2.07;;
17441;SDS011;8838;50.144;8.176;2024-03-25T01:45:22;12.07;;;3.17;;
17441;SDS011;8838;50.144;8.176;2024-03-25T01:47:49;13.87;;;2.63;;
17441;SDS011;8838;50.144;8.176;2024-03-25T01:50:15;6.83;;;2.00;;
17441;SDS011;8838;50.144;8.176;2024-03-25T01:52:42;9.43;;;2.03;;
17441;SDS011;8838;50.144;8.176;2024-03-25T01:55:09;5.73;;;2.10;;
17441;SDS011;8838;50.144;8.176;2024-03-25T01:57:41;13.43;;;2.63;;
17441;SDS011;8838;50.144;8.176;2024-03-25T02:00:08;11.17;;;2.50;;
17441;SDS011;8838;50.144;8.176;2024-03-25T02:02:37;7.97;;;2.30;;
17441;SDS011;8838;50.144;8.176;2024-03-25T02:05:06;6.73;;;2.27;;
17441;SDS011;8838;50.144;8.176;2024-03-25T02:07:34;7.23;;;2.40;;
17441;SDS011;8838;50.144;8.176;2024-03-25T02:10:01;9.47;;;2.03;;
17441;SDS011;8838;50.144;8.176;2024-03-25T02:12:29;7.20;;;2.27;;
17441;SDS011;8838;50.144;8.176;2024-03-25T02:14:55;7.00;;;2.43;;
17441;SDS011;8838;50.144;8.176;2024-03-25T02:17:23;7.27;;;2.33;;
17441;SDS011;8838;50.144;8.176;2024-03-25T02:19:50;8.23;;;2.30;;
17441;SDS011;8838;50.144;8.176;2024-03-25T02:22:17;11.00;;;2.30;;
17441;SDS011;8838;50.144;8.176;2024-03-25T02:24:44;7.70;;;2.77;;
17441;SDS011;8838;50.144;8.176;2024-03-25T02:27:13;8.73;;;2.30;;
17441;SDS011;8838;50.144;8.176;2024-03-25T02:29:39;12.23;;;2.60;;
17441;SDS011;8838;50.144;8.176;2024-03-25T02:32:06;10.50;;;2.43;;
17441;SDS011;8838;50.144;8.176;2024-03-25T02:34:35;8.80;;;2.43;;
17441;SDS011;8838;50.144;8.176;2024-03-25T02:37:02;7.43;;;2.13;;
17441;SDS011;8838;50.144;8.176;2024-03-25T02:39:28;12.07;;;2.43;;
17441;SDS011;8838;50.144;8.176;2024-03-25T02:41:55;8.83;;;2.10;;
17441;SDS011;8838;50.144;8.176;2024-03-25T02:44:23;10.77;;;2.40;;
17441;SDS011;8838;50.144;8.176;2024-03-25T02:46:50;7.77;;;2.17;;
17441;SDS011;8838;50.144;8.176;2024-03-25T02:49:17;13.53;;;2.50;;
17441;SDS011;8838;50.144;8.176;2024-03-25T02:51:45;9.70;;;2.27;;
17441;SDS011;8838;50.144;8.176;2024-03-25T02:54:11;7.47;;;2.30;;
17441;SDS011;8838;50.144;8.176;2024-03-25T02:56:39;10.33;;;2.37;;
17441;SDS011;8838;50.144;8.176;2024-03-25T02:59:05;9.57;;;2.23;;
17441;SDS011;8838;50.144;8.176;2024-03-25T03:01:33;9.53;;;2.73;;
17441;SDS011;8838;50.144;8.176;2024-03-25T03:03:59;11.27;;;2.33;;
17441;SDS011;8838;50.144;8.176;2024-03-25T03:06:25;11.83;;;2.50;;
17441;SDS011;8838;50.144;8.176;2024-03-25T03:08:51;7.93;;;2.13;;
17441;SDS011;8838;50.144;8.176;2024-03-25T03:11:18;11.53;;;2.50;;
17441;SDS011;8838;50.144;8.176;2024-03-25T03:13:44;12.33;;;2.20;;
17441;SDS011;8838;50.144;8.176;2024-03-25T03:16:11;10.30;;;2.47;;
17441;SDS011;8838;50.144;8.176;2024-03-25T03:18:39;10.93;;;2.30;;
17441;SDS011;8838;50.144;8.176;2024-03-25T03:21:06;12.40;;;2.20;;
17441;SDS011;8838;50.144;8.176;2024-03-25T03:23:31;9.17;;;2.73;;
17441;SDS011;8838;50.144;8.176;2024-03-25T03:25:58;9.97;;;2.20;;
17441;SDS011;8838;50.144;8.176;2024-03-25T03:28:25;10.57;;;2.80;;
17441;SDS011;8838;50.144;8.176;2024-03-25T03:30:53;8.27;;;2.40;;
17441;SDS011;8838;50.144;8.176;2024-03-25T03:33:19;11.40;;;2.97;;
17441;SDS011;8838;50.144;8.176;2024-03-25T03:35:47;10.87;;;2.73;;
17441;SDS011;8838;50.144;8.176;2024-03-25T03:38:14;12.80;;;2.70;;
17441;SDS011;8838;50.144;8.176;2024-03-25T03:40:40;6.77;;;2.70;;
17441;SDS011;8838;50.144;8.176;2024-03-25T03:43:06;15.30;;;2.90;;
17441;SDS011;8838;50.144;8.176;2024-03-25T03:45:33;11.17;;;2.67;;
17441;SDS011;8838;50.144;8.176;2024-03-25T03:48:00;11.17;;;2.60;;
17441;SDS011;8838;50.144;8.176;2024-03-25T03:50:26;8.97;;;2.63;;
17441;SDS011;8838;50.144;8.176;2024-03-25T03:52:53;9.60;;;2.63;;
17441;SDS011;8838;50.144;8.176;2024-03-25T03:55:20;14.77;;;2.80;;
17441;SDS011;8838;50.144;8.176;2024-03-25T03:57:46;12.70;;;3.13;;
17441;SDS011;8838;50.144;8.176;2024-03-25T04:00:13;9.47;;;2.63;;
17441;SDS011;8838;50.144;8.176;2024-03-25T04:02:39;11.43;;;2.97;;
17441;SDS011;8838;50.144;8.176;2024-03-25T04:05:06;13.03;;;2.53;;
17441;SDS011;8838;50.144;8.176;2024-03-25T04:07:33;14.93;;;2.97;;
17441;SDS011;8838;50.144;8.176;2024-03-25T04:10:01;13.47;;;2.70;;
17441;SDS011;8838;50.144;8.176;2024-03-25T04:12:28;12.40;;;3.00;;
17441;SDS011;8838;50.144;8.176;2024-03-25T04:14:55;14.23;;;2.93;;
17441;SDS011;8838;50.144;8.176;2024-03-25T04:17:21;21.70;;;3.43;;
17441;SDS011;8838;50.144;8.176;2024-03-25T04:19:48;11.97;;;2.50;;
17441;SDS011;8838;50.144;8.176;2024-03-25T04:22:14;10.33;;;2.43;;
17441;SDS011;8838;50.144;8.176;2024-03-25T04:24:42;10.07;;;2.57;;
17441;SDS011;8838;50.144;8.176;2024-03-25T04:27:09;8.57;;;2.70;;
17441;SDS011;8838;50.144;8.176;2024-03-25T04:29:36;10.40;;;3.10;;
17441;SDS011;8838;50.144;8.176;2024-03-25T04:32:02;16.30;;;2.83;;
17441;SDS011;8838;50.144;8.176;2024-03-25T04:34:29;9.53;;;2.43;;
17441;SDS011;8838;50.144;8.176;2024-03-25T04:36:55;9.33;;;2.40;;
17441;SDS011;8838;50.144;8.176;2024-03-25T04:39:21;13.03;;;2.60;;
17441;SDS011;8838;50.144;8.176;2024-03-25T04:41:47;17.47;;;2.70;;
17441;SDS011;8838;50.144;8.176;2024-03-25T04:44:14;12.40;;;2.57;;
17441;SDS011;8838;50.144;8.176;2024-03-25T04:46:40;13.13;;;3.00;;
17441;SDS011;8838;50.144;8.176;2024-03-25T04:49:06;11.30;;;2.67;;
17441;SDS011;8838;50.144;8.176;2024-03-25T04:51:32;11.13;;;2.73;;
17441;SDS011;8838;50.144;8.176;2024-03-25T04:53:58;15.23;;;2.77;;
17441;SDS011;8838;50.144;8.176;2024-03-25T04:56:24;9.73;;;2.63;;
17441;SDS011;8838;50.144;8.176;2024-03-25T04:58:49;13.43;;;3.10;;
17441;SDS011;8838;50.144;8.176;2024-03-25T05:01:17;9.23;;;2.50;;
17441;SDS011;8838;50.144;8.176;2024-03-25T05:03:42;12.63;;;2.87;;
17441;SDS011;8838;50.144;8.176;2024-03-25T05:06:08;14.07;;;2.73;;
17441;SDS011;8838;50.144;8.176;2024-03-25T05:08:34;11.97;;;2.80;;
17441;SDS011;8838;50.144;8.176;2024-03-25T05:11:00;13.13;;;2.90;;
17441;SDS011;8838;50.144;8.176;2024-03-25T05:13:26;12.10;;;3.10;;
17441;SDS011;8838;50.144;8.176;2024-03-25T05:15:52;11.23;;;3.03;;
17441;SDS011;8838;50.144;8.176;2024-03-25T05:18:19;7.47;;;3.10;;
17441;SDS011;8838;50.144;8.176;2024-03-25T05:20:45;13.50;;;3.80;;
17441;SDS011;8838;50.144;8.176;2024-03-25T05:23:11;12.10;;;3.33;;
17441;SDS011;8838;50.144;8.176;2024-03-25T05:25:37;10.23;;;2.93;;
17441;SDS011;8838;50.144;8.176;2024-03-25T05:28:04;11.37;;;3.10;;
17441;SDS011;8838;50.144;8.176;2024-03-25T05:30:30;13.53;;;3.17;;
17441;SDS011;8838;50.144;8.176;2024-03-25T05:32:56;11.60;;;3.10;;
17441;SDS011;8838;50.144;8.176;2024-03-25T05:35:23;9.17;;;2.83;;
17441;SDS011;8838;50.144;8.176;2024-03-25T05:37:49;12.50;;;3.30;;
17441;SDS011;8838;50.144;8.176;2024-03-25T05:40:14;13.80;;;3.53;;
17441;SDS011;8838;50.144;8.176;2024-03-25T05:42:40;12.80;;;3.17;;
17441;SDS011;8838;50.144;8.176;2024-03-25T05:45:09;12.30;;;2.80;;
17441;SDS011;8838;50.144;8.176;2024-03-25T05:47:35;10.67;;;3.20;;
17441;SDS011;8838;50.144;8.176;2024-03-25T05:50:01;15.90;;;3.47;;
17441;SDS011;8838;50.144;8.176;2024-03-25T05:52:29;11.60;;;3.40;;
17441;SDS011;8838;50.144;8.176;2024-03-25T05:54:55;11.07;;;2.73;;
17441;SDS011;8838;50.144;8.176;2024-03-25T05:57:21;14.67;;;3.50;;
17441;SDS011;8838;50.144;8.176;2024-03-25T05:59:47;8.30;;;2.90;;
17441;SDS011;8838;50.144;8.176;2024-03-25T06:02:12;10.87;;;2.83;;
17441;SDS011;8838;50.144;8.176;2024-03-25T06:04:38;14.27;;;3.20;;
17441;SDS011;8838;50.144;8.176;2024-03-25T06:07:04;15.83;;;3.40;;
17441;SDS011;8838;50.144;8.176;2024-03-25T06:09:31;8.73;;;2.93;;
17441;SDS011;8838;50.144;8.176;2024-03-25T06:11:57;13.33;;;3.40;;
17441;SDS011;8838;50.144;8.176;2024-03-25T06:14:23;11.63;;;3.60;;
17441;SDS011;8838;50.144;8.176;2024-03-25T06:16:49;9.73;;;3.07;;
17441;SDS011;8838;50.144;8.176;2024-03-25T06:19:15;12.13;;;3.80;;
17441;SDS011;8838;50.144;8.176;2024-03-25T06:21:41;14.70;;;4.13;;
17441;SDS011;8838;50.144;8.176;2024-03-25T06:24:07;14.20;;;3.70;;
17441;SDS011;8838;50.144;8.176;2024-03-25T06:26:34;16.27;;;4.37;;
17441;SDS011;8838;50.144;8.176;2024-03-25T06:29:00;10.13;;;2.97;;
17441;SDS011;8838;50.144;8.176;2024-03-25T06:31:26;16.40;;;3.30;;
17441;SDS011;8838;50.144;8.176;2024-03-25T06:34:10;12.43;;;3.40;;
17441;SDS011;8838;50.144;8.176;2024-03-25T06:36:42;14.33;;;3.30;;
17441;SDS011;8838;50.144;8.176;2024-03-25T06:39:08;11.83;;;3.60;;
17441;SDS011;8838;50.144;8.176;2024-03-25T06:41:36;12.23;;;2.87;;
17441;SDS011;8838;50.144;8.176;2024-03-25T06:44:01;14.70;;;2.87;;
17441;SDS011;8838;50.144;8.176;2024-03-25T06:46:27;9.03;;;2.57;;
17441;SDS011;8838;50.144;8.176;2024-03-25T06:48:53;14.20;;;2.93;;
17441;SDS011;8838;50.144;8.176;2024-03-25T06:51:19;10.43;;;2.50;;
17441;SDS011;8838;50.144;8.176;2024-03-25T06:53:45;9.20;;;2.33;;
17441;SDS011;8838;50.144;8.176;2024-03-25T06:56:11;9.63;;;2.20;;
17441;SDS011;8838;50.144;8.176;2024-03-25T06:58:38;12.87;;;2.20;;
17441;SDS011;8838;50.144;8.176;2024-03-25T07:01:04;11.13;;;2.47;;
17441;SDS011;8838;50.144;8.176;2024-03-25T07:03:32;8.73;;;1.80;;
17441;SDS011;8838;50.144;8.176;2024-03-25T07:05:58;9.30;;;2.17;;
17441;SDS011;8838;50.144;8.176;2024-03-25T07:08:25;13.50;;;2.30;;
17441;SDS011;8838;50.144;8.176;2024-03-25T07:10:51;11.67;;;2.63;;
17441;SDS011;8838;50.144;8.176;2024-03-25T07:13:18;8.27;;;2.07;;
17441;SDS011;8838;50.144;8.176;2024-03-25T07:15:45;12.47;;;2.40;;
17441;SDS011;8838;50.144;8.176;2024-03-25T07:18:11;12.30;;;2.80;;
17441;SDS011;8838;50.144;8.176;2024-03-25T07:20:38;10.60;;;2.30;;
17441;SDS011;8838;50.144;8.176;2024-03-25T07:23:04;11.87;;;2.80;;
17441;SDS011;8838;50.144;8.176;2024-03-25T07:25:30;15.00;;;2.27;;
17441;SDS011;8838;50.144;8.176;2024-03-25T07:27:56;11.23;;;2.30;;
17441;SDS011;8838;50.144;8.176;2024-03-25T07:30:22;11.68;;;2.58;;
17441;SDS011;8838;50.144;8.176;2024-03-25T07:32:50;10.07;;;2.20;;
17441;SDS011;8838;50.144;8.176;2024-03-25T07:35:15;12.15;;;2.63;;
17441;SDS011;8838;50.144;8.176;2024-03-25T07:37:42;11.57;;;2.50;;
17441;SDS011;8838;50.144;8.176;2024-03-25T07:40:08;11.33;;;2.57;;
17441;SDS011;8838;50.144;8.176;2024-03-25T07:42:34;47.90;;;22.50;;
17441;SDS011;8838;50.144;8.176;2024-03-25T07:45:00;13.57;;;2.13;;
17441;SDS011;8838;50.144;8.176;2024-03-25T07:47:26;13.90;;;2.63;;
17441;SDS011;8838;50.144;8.176;2024-03-25T07:49:53;9.80;;;2.57;;
17441;SDS011;8838;50.144;8.176;2024-03-25T07:52:19;8.80;;;2.37;;
17441;SDS011;8838;50.144;8.176;2024-03-25T07:54:45;9.75;;;2.20;;
17441;SDS011;8838;50.144;8.176;2024-03-25T07:57:11;8.50;;;2.25;;
17441;SDS011;8838;50.144;8.176;2024-03-25T07:59:37;10.73;;;2.25;;
17441;SDS011;8838;50.144;8.176;2024-03-25T08:02:03;8.63;;;2.10;;
17441;SDS011;8838;50.144;8.176;2024-03-25T08:04:29;9.48;;;2.15;;
17441;SDS011;8838;50.144;8.176;2024-03-25T08:06:56;11.57;;;2.08;;
17441;SDS011;8838;50.144;8.176;2024-03-25T08:09:22;11.98;;;2.35;;
17441;SDS011;8838;50.144;8.176;2024-03-25T08:11:48;14.00;;;1.92;;
17441;SDS011;8838;50.144;8.176;2024-03-25T08:14:13;9.10;;;2.00;;
17441;SDS011;8838;50.144;8.176;2024-03-25T08:16:39;12.75;;;2.72;;
17441;SDS011;8838;50.144;8.176;2024-03-25T08:19:05;9.40;;;1.95;;
17441;SDS011;8838;50.144;8.176;2024-03-25T08:21:31;15.15;;;2.45;;
17441;SDS011;8838;50.144;8.176;2024-03-25T08:23:58;9.55;;;1.80;;
17441;SDS011;8838;50.144;8.176;2024-03-25T08:26:24;12.10;;;1.98;;
17441;SDS011;8838;50.144;8.176;2024-03-25T08:28:50;11.32;;;2.10;;
17441;SDS011;8838;50.144;8.176;2024-03-25T08:31:16;11.25;;;2.40;;
17441;SDS011;8838;50.144;8.176;2024-03-25T08:33:42;8.82;;;2.30;;
17441;SDS011;8838;50.144;8.176;2024-03-25T08:36:08;6.63;;;1.88;;
17441;SDS011;8838;50.144;8.176;2024-03-25T08:38:34;10.32;;;1.85;;
17441;SDS011;8838;50.144;8.176;2024-03-25T08:41:01;11.43;;;2.05;;
17441;SDS011;8838;50.144;8.176;2024-03-25T08:43:28;9.38;;;2.35;;
17441;SDS011;8838;50.144;8.176;2024-03-25T08:45:53;11.93;;;2.50;;
17441;SDS011;8838;50.144;8.176;2024-03-25T08:48:19;10.90;;;1.98;;
17441;SDS011;8838;50.144;8.176;2024-03-25T08:50:45;9.32;;;2.00;;
17441;SDS011;8838;50.144;8.176;2024-03-25T08:53:11;8.60;;;1.70;;
17441;SDS011;8838;50.144;8.176;2024-03-25T08:55:37;11.38;;;2.22;;
17441;SDS011;8838;50.144;8.176;2024-03-25T08:58:04;10.15;;;2.42;;
17441;SDS011;8838;50.144;8.176;2024-03-25T09:00:30;10.10;;;1.98;;
17441;SDS011;8838;50.144;8.176;2024-03-25T09:02:56;7.95;;;2.10;;
17441;SDS011;8838;50.144;8.176;2024-03-25T09:05:22;9.32;;;2.10;;
17441;SDS011;8838;50.144;8.176;2024-03-25T09:07:49;10.00;;;2.10;;
17441;SDS011;8838;50.144;8.176;2024-03-25T09:10:15;10.00;;;1.85;;
17441;SDS011;8838;50.144;8.176;2024-03-25T09:13:00;10.23;;;1.92;;
17441;SDS011;8838;50.144;8.176;2024-03-25T09:15:27;7.45;;;2.53;;
17441;SDS011;8838;50.144;8.176;2024-03-25T09:17:53;8.88;;;1.95;;
17441;SDS011;8838;50.144;8.176;2024-03-25T09:20:19;9.88;;;1.90;;
17441;SDS011;8838;50.144;8.176;2024-03-25T09:22:45;5.25;;;1.55;;
17441;SDS011;8838;50.144;8.176;2024-03-25T09:25:11;8.85;;;2.22;;
17441;SDS011;8838;50.144;8.176;2024-03-25T09:27:37;6.00;;;1.80;;
17441;SDS011;8838;50.144;8.176;2024-03-25T09:30:03;7.75;;;1.90;;
17441;SDS011;8838;50.144;8.176;2024-03-25T09:32:30;7.70;;;1.52;;
17441;SDS011;8838;50.144;8.176;2024-03-25T09:34:57;5.10;;;1.23;;
17441;SDS011;8838;50.144;8.176;2024-03-25T09:37:22;5.57;;;1.38;;
17441;SDS011;8838;50.144;8.176;2024-03-25T09:39:48;5.00;;;1.30;;
17441;SDS011;8838;50.144;8.176;2024-03-25T09:42:15;6.87;;;1.90;;
17441;SDS011;8838;50.144;8.176;2024-03-25T09:44:47;7.25;;;1.30;;
17441;SDS011;8838;50.144;8.176;2024-03-25T09:47:13;7.13;;;1.23;;
17441;SDS011;8838;50.144;8.176;2024-03-25T09:49:41;5.43;;;1.65;;
17441;SDS011;8838;50.144;8.176;2024-03-25T09:52:08;5.60;;;1.30;;
17441;SDS011;8838;50.144;8.176;2024-03-25T09:54:34;4.95;;;1.10;;
17441;SDS011;8838;50.144;8.176;2024-03-25T09:57:00;4.45;;;1.40;;
17441;SDS011;8838;50.144;8.176;2024-03-25T09:59:27;4.80;;;1.45;;
17441;SDS011;8838;50.144;8.176;2024-03-25T10:01:53;6.03;;;1.90;;
17441;SDS011;8838;50.144;8.176;2024-03-25T10:04:19;2.70;;;1.05;;
17441;SDS011;8838;50.144;8.176;2024-03-25T10:06:47;4.30;;;1.27;;
17441;SDS011;8838;50.144;8.176;2024-03-25T10:09:13;2.63;;;0.93;;
17441;SDS011;8838;50.144;8.176;2024-03-25T10:11:46;5.78;;;1.33;;
17441;SDS011;8838;50.144;8.176;2024-03-25T10:14:12;3.78;;;1.25;;
17441;SDS011;8838;50.144;8.176;2024-03-25T10:16:38;6.55;;;1.98;;
17441;SDS011;8838;50.144;8.176;2024-03-25T10:19:04;8.27;;;1.40;;
17441;SDS011;8838;50.144;8.176;2024-03-25T10:21:30;2.25;;;1.05;;
17441;SDS011;8838;50.144;8.176;2024-03-25T10:23:57;3.90;;;1.35;;
17441;SDS011;8838;50.144;8.176;2024-03-25T10:26:25;5.45;;;1.30;;
17441;SDS011;8838;50.144;8.176;2024-03-25T10:29:01;3.58;;;1.13;;
17441;SDS011;8838;50.144;8.176;2024-03-25T10:31:28;3.45;;;1.17;;
17441;SDS011;8838;50.144;8.176;2024-03-25T10:33:54;4.95;;;1.48;;
17441;SDS011;8838;50.144;8.176;2024-03-25T10:36:20;4.55;;;1.40;;
17441;SDS011;8838;50.144;8.176;2024-03-25T10:38:48;4.07;;;1.00;;
17441;SDS011;8838;50.144;8.176;2024-03-25T10:41:17;4.32;;;1.30;;
17441;SDS011;8838;50.144;8.176;2024-03-25T10:43:47;4.35;;;1.30;;
17441;SDS011;8838;50.144;8.176;2024-03-25T10:46:17;4.63;;;1.38;;
17441;SDS011;8838;50.144;8.176;2024-03-25T10:48:47;8.70;;;1.58;;
17441;SDS011;8838;50.144;8.176;2024-03-25T10:51:19;6.95;;;1.55;;
17441;SDS011;8838;50.144;8.176;2024-03-25T10:53:48;4.57;;;1.20;;
17441;SDS011;8838;50.144;8.176;2024-03-25T10:56:19;4.63;;;1.48;;
17441;SDS011;8838;50.144;8.176;2024-03-25T10:58:46;4.55;;;1.50;;
17441;SDS011;8838;50.144;8.176;2024-03-25T11:01:13;4.47;;;1.20;;
17441;SDS011;8838;50.144;8.176;2024-03-25T11:03:41;3.47;;;1.27;;
17441;SDS011;8838;50.144;8.176;2024-03-25T11:06:08;5.28;;;1.25;;
17441;SDS011;8838;50.144;8.176;2024-03-25T11:08:33;4.38;;;1.27;;
17441;SDS011;8838;50.144;8.176;2024-03-25T11:10:59;2.85;;;1.00;;
17441;SDS011;8838;50.144;8.176;2024-03-25T11:13:27;4.63;;;1.40;;
17441;SDS011;8838;50.144;8.176;2024-03-25T11:15:53;3.72;;;1.30;;
17441;SDS011;8838;50.144;8.176;2024-03-25T11:18:22;3.78;;;1.13;;
17441;SDS011;8838;50.144;8.176;2024-03-25T11:20:59;4.68;;;1.30;;
17441;SDS011;8838;50.144;8.176;2024-03-25T11:23:26;3.92;;;1.27;;
17441;SDS011;8838;50.144;8.176;2024-03-25T11:25:54;2.40;;;0.98;;
17441;SDS011;8838;50.144;8.176;2024-03-25T11:28:27;2.47;;;1.00;;
17441;SDS011;8838;50.144;8.176;2024-03-25T11:30:54;3.33;;;1.00;;
17441;SDS011;8838;50.144;8.176;2024-03-25T11:33:21;2.92;;;0.90;;
17441;SDS011;8838;50.144;8.176;2024-03-25T11:35:47;2.53;;;0.93;;
17441;SDS011;8838;50.144;8.176;2024-03-25T11:38:13;3.55;;;1.05;;
17441;SDS011;8838;50.144;8.176;2024-03-25T11:40:40;3.67;;;1.23;;
17441;SDS011;8838;50.144;8.176;2024-03-25T11:43:08;2.88;;;1.00;;
17441;SDS011;8838;50.144;8.176;2024-03-25T11:45:35;3.03;;;1.17;;
17441;SDS011;8838;50.144;8.176;2024-03-25T11:48:02;3.05;;;1.58;;
17441;SDS011;8838;50.144;8.176;2024-03-25T11:50:28;3.10;;;1.10;;
17441;SDS011;8838;50.144;8.176;2024-03-25T11:52:54;3.00;;;1.10;;
17441;SDS011;8838;50.144;8.176;2024-03-25T11:55:20;2.15;;;1.02;;
17441;SDS011;8838;50.144;8.176;2024-03-25T11:57:46;3.38;;;1.27;;
17441;SDS011;8838;50.144;8.176;2024-03-25T12:00:19;2.75;;;1.00;;
17441;SDS011;8838;50.144;8.176;2024-03-25T12:02:47;4.82;;;1.30;;
17441;SDS011;8838;50.144;8.176;2024-03-25T12:05:13;3.42;;;1.20;;
17441;SDS011;8838;50.144;8.176;2024-03-25T12:07:39;2.80;;;1.00;;
17441;SDS011;8838;50.144;8.176;2024-03-25T12:10:05;3.72;;;1.20;;
17441;SDS011;8838;50.144;8.176;2024-03-25T12:12:50;3.20;;;1.10;;
17441;SDS011;8838;50.144;8.176;2024-03-25T12:15:16;4.68;;;1.30;;
17441;SDS011;8838;50.144;8.176;2024-03-25T12:17:42;2.47;;;1.27;;
17441;SDS011;8838;50.144;8.176;2024-03-25T12:20:10;3.83;;;1.20;;
17441;SDS011;8838;50.144;8.176;2024-03-25T12:22:36;6.53;;;1.25;;
17441;SDS011;8838;50.144;8.176;2024-03-25T12:25:03;4.85;;;1.48;;
17441;SDS011;8838;50.144;8.176;2024-03-25T12:27:30;3.85;;;1.25;;
17441;SDS011;8838;50.144;8.176;2024-03-25T12:29:57;2.90;;;0.80;;
17441;SDS011;8838;50.144;8.176;2024-03-25T12:32:31;3.60;;;1.02;;
17441;SDS011;8838;50.144;8.176;2024-03-25T12:35:01;2.05;;;0.85;;
17441;SDS011;8838;50.144;8.176;2024-03-25T12:37:28;3.33;;;1.20;;
17441;SDS011;8838;50.144;8.176;2024-03-25T12:39:55;3.03;;;1.10;;
17441;SDS011;8838;50.144;8.176;2024-03-25T12:42:21;4.72;;;1.02;;
17441;SDS011;8838;50.144;8.176;2024-03-25T12:44:47;5.38;;;1.20;;
17441;SDS011;8838;50.144;8.176;2024-03-25T12:47:13;3.30;;;1.20;;
17441;SDS011;8838;50.144;8.176;2024-03-25T12:49:39;3.75;;;1.23;;
17441;SDS011;8838;50.144;8.176;2024-03-25T12:52:05;4.38;;;1.60;;
17441;SDS011;8838;50.144;8.176;2024-03-25T12:54:33;4.18;;;1.20;;
17441;SDS011;8838;50.144;8.176;2024-03-25T12:56:59;6.07;;;1.20;;
17441;SDS011;8838;50.144;8.176;2024-03-25T12:59:25;3.03;;;1.08;;
17441;SDS011;8838;50.144;8.176;2024-03-25T13:01:51;2.97;;;1.02;;
17441;SDS011;8838;50.144;8.176;2024-03-25T13:04:17;2.88;;;1.13;;
17441;SDS011;8838;50.144;8.176;2024-03-25T13:06:43;5.93;;;1.13;;
17441;SDS011;8838;50.144;8.176;2024-03-25T13:09:09;2.00;;;1.10;;
17441;SDS011;8838;50.144;8.176;2024-03-25T13:11:37;3.38;;;1.70;;
17441;SDS011;8838;50.144;8.176;2024-03-25T13:14:03;4.93;;;1.63;;
17441;SDS011;8838;50.144;8.176;2024-03-25T13:16:29;4.43;;;1.60;;
17441;SDS011;8838;50.144;8.176;2024-03-25T13:18:55;6.15;;;1.55;;
17441;SDS011;8838;50.144;8.176;2024-03-25T13:21:20;7.60;;;1.48;;
17441;SDS011;8838;50.144;8.176;2024-03-25T13:23:46;5.07;;;1.58;;
17441;SDS011;8838;50.144;8.176;2024-03-25T13:26:12;4.88;;;1.73;;
17441;SDS011;8838;50.144;8.176;2024-03-25T13:28:39;6.00;;;1.60;;
17441;SDS011;8838;50.144;8.176;2024-03-25T13:31:05;8.95;;;1.88;;
17441;SDS011;8838;50.144;8.176;2024-03-25T13:33:31;4.07;;;1.50;;
17441;SDS011;8838;50.144;8.176;2024-03-25T13:35:57;4.18;;;1.50;;
17441;SDS011;8838;50.144;8.176;2024-03-25T13:38:23;4.70;;;1.50;;
17441;SDS011;8838;50.144;8.176;2024-03-25T13:40:49;4.70;;;2.15;;
17441;SDS011;8838;50.144;8.176;2024-03-25T13:43:15;6.18;;;1.55;;
17441;SDS011;8838;50.144;8.176;2024-03-25T13:45:47;2.88;;;1.50;;
17441;SDS011;8838;50.144;8.176;2024-03-25T13:48:14;5.72;;;1.50;;
17441;SDS011;8838;50.144;8.176;2024-03-25T13:50:41;4.45;;;1.60;;
17441;SDS011;8838;50.144;8.176;2024-03-25T13:53:07;3.88;;;1.58;;
17441;SDS011;8838;50.144;8.176;2024-03-25T13:55:33;4.57;;;1.75;;
17441;SDS011;8838;50.144;8.176;2024-03-25T13:57:59;4.70;;;1.50;;
17441;SDS011;8838;50.144;8.176;2024-03-25T14:00:25;7.20;;;1.73;;
17441;SDS011;8838;50.144;8.176;2024-03-25T14:02:52;4.35;;;1.50;;
17441;SDS011;8838;50.144;8.176;2024-03-25T14:05:18;8.23;;;2.45;;
17441;SDS011;8838;50.144;8.176;2024-03-25T14:07:44;5.63;;;1.67;;
17441;SDS011;8838;50.144;8.176;2024-03-25T14:10:10;6.88;;;1.60;;
17441;SDS011;8838;50.144;8.176;2024-03-25T14:12:36;4.38;;;1.38;;
17441;SDS011;8838;50.144;8.176;2024-03-25T14:15:02;3.60;;;1.50;;
17441;SDS011;8838;50.144;8.176;2024-03-25T14:17:28;3.58;;;1.40;;
17441;SDS011;8838;50.144;8.176;2024-03-25T14:19:56;7.28;;;1.38;;
17441;SDS011;8838;50.144;8.176;2024-03-25T14:22:22;3.78;;;1.33;;
17441;SDS011;8838;50.144;8.176;2024-03-25T14:24:48;5.15;;;1.50;;
17441;SDS011;8838;50.144;8.176;2024-03-25T14:27:14;4.65;;;1.33;;
17441;SDS011;8838;50.144;8.176;2024-03-25T14:29:40;3.22;;;1.17;;
17441;SDS011;8838;50.144;8.176;2024-03-25T14:32:06;3.75;;;1.60;;
17441;SDS011;8838;50.144;8.176;2024-03-25T14:34:32;3.65;;;1.30;;
17441;SDS011;8838;50.144;8.176;2024-03-25T14:37:00;5.80;;;1.20;;
17441;SDS011;8838;50.144;8.176;2024-03-25T14:39:26;6.13;;;1.58;;
17441;SDS011;8838;50.144;8.176;2024-03-25T14:41:52;7.20;;;1.50;;
17441;SDS011;8838;50.144;8.176;2024-03-25T14:44:18;6.63;;;1.48;;
17441;SDS011;8838;50.144;8.176;2024-03-25T14:46:44;5.90;;;1.90;;
17441;SDS011;8838;50.144;8.176;2024-03-25T14:49:10;6.07;;;1.55;;
17441;SDS011;8838;50.144;8.176;2024-03-25T14:51:35;5.70;;;1.48;;